Time,TemperatureF,DewpointF,PressureIn,WindDirection,WindDirectionDegrees,WindSpeedMPH,WindSpeedGustMPH,Humidity,HourlyPrecipIn,Conditions,Clouds,dailyrainin,SoftwareType,DateUTC
2013-02-17 00:00:00,29.1,18.8,29.73,NE,49,3.0,3.0,65,0.00,,,0.01,Wunderground v.1.15,2013-02-17 05:00:00,
2013-02-17 00:10:00,28.9,19.0,29.71,WSW,257,2.0,4.0,66,0.00,,,0.00,Wunderground v.1.15,2013-02-17 05:10:00,
2013-02-17 00:20:00,28.5,19.3,29.70,NW,321,3.0,4.0,68,0.00,,,0.00,Wunderground v.1.15,2013-02-17 05:20:00,
2013-02-17 00:30:00,28.0,19.1,29.69,North,355,3.0,3.0,69,0.00,,,0.00,Wunderground v.1.15,2013-02-17 05:30:00,
2013-02-17 00:40:00,27.6,18.4,29.69,NE,38,3.0,3.0,68,0.00,,,0.00,Wunderground v.1.15,2013-02-17 05:40:00,
2013-02-17 00:50:00,27.4,18.6,29.68,West,280,3.0,3.0,69,0.00,,,0.00,Wunderground v.1.15,2013-02-17 05:50:00,
2013-02-17 01:00:00,27.3,18.1,29.70,WSW,253,3.0,8.0,68,0.00,,,0.00,Wunderground v.1.15,2013-02-17 06:00:00,
2013-02-17 01:10:00,27.3,17.8,29.70,North,5,2.0,8.0,67,0.00,,,0.00,Wunderground v.1.15,2013-02-17 06:10:00,
2013-02-17 01:20:00,27.2,17.0,29.69,North,5,2.0,3.0,65,0.00,,,0.00,Wunderground v.1.15,2013-02-17 06:20:00,
2013-02-17 01:30:00,27.2,16.3,29.69,NW,310,3.0,3.0,63,0.00,,,0.00,Wunderground v.1.15,2013-02-17 06:30:00,
2013-02-17 01:40:00,27.2,15.9,29.68,North,360,3.0,5.0,62,0.00,,,0.00,Wunderground v.1.15,2013-02-17 06:40:00,
2013-02-17 01:50:00,27.0,15.7,29.66,North,351,3.0,6.0,62,0.00,,,0.00,Wunderground v.1.15,2013-02-17 06:50:00,
2013-02-17 02:00:00,26.9,15.6,29.66,NNW,348,3.0,3.0,62,0.00,,,0.00,Wunderground v.1.15,2013-02-17 07:00:00,
2013-02-17 02:10:00,26.5,16.0,29.66,NW,313,3.0,3.0,64,0.00,,,0.00,Wunderground v.1.15,2013-02-17 07:10:00,
2013-02-17 02:20:00,26.1,15.6,29.65,NNE,30,3.0,3.0,64,0.00,,,0.00,Wunderground v.1.15,2013-02-17 07:20:00,
2013-02-17 02:30:00,26.1,15.2,29.66,NNE,13,2.0,2.0,63,0.00,,,0.00,Wunderground v.1.15,2013-02-17 07:30:00,
2013-02-17 02:40:00,26.2,15.3,29.66,ENE,63,2.0,2.0,63,0.00,,,0.00,Wunderground v.1.15,2013-02-17 07:40:00,
2013-02-17 02:50:00,26.1,14.1,29.65,NE,42,2.0,5.0,60,0.00,,,0.00,Wunderground v.1.15,2013-02-17 07:50:00,
2013-02-17 03:00:00,26.0,12.8,29.64,North,5,3.0,4.0,57,0.00,,,0.00,Wunderground v.1.15,2013-02-17 08:00:00,
2013-02-17 03:10:00,26.0,11.6,29.62,NNW,328,4.0,4.0,54,0.00,,,0.00,Wunderground v.1.15,2013-02-17 08:10:00,
2013-02-17 03:20:00,25.6,12.1,29.62,NNE,30,4.0,4.0,56,0.00,,,0.00,Wunderground v.1.15,2013-02-17 08:20:00,
2013-02-17 03:30:00,25.2,12.9,29.61,NNE,13,3.0,4.0,59,0.00,,,0.00,Wunderground v.1.15,2013-02-17 08:30:00,
2013-02-17 03:40:00,24.8,12.9,29.62,ENE,67,4.0,4.0,60,0.00,,,0.00,Wunderground v.1.15,2013-02-17 08:40:00,
2013-02-17 03:50:00,24.5,13.3,29.61,NNE,12,3.0,5.0,62,0.00,,,0.00,Wunderground v.1.15,2013-02-17 08:50:00,
2013-02-17 04:00:00,24.2,13.4,29.61,WNW,290,4.0,4.0,63,0.00,,,0.00,Wunderground v.1.15,2013-02-17 09:00:00,
2013-02-17 04:10:00,24.1,13.7,29.61,NNW,334,3.0,3.0,64,0.00,,,0.00,Wunderground v.1.15,2013-02-17 09:10:00,
2013-02-17 04:20:00,23.8,13.7,29.60,NE,44,3.0,3.0,65,0.00,,,0.00,Wunderground v.1.15,2013-02-17 09:20:00,
2013-02-17 04:30:00,23.9,12.8,29.59,NNE,16,4.0,4.0,62,0.00,,,0.00,Wunderground v.1.15,2013-02-17 09:30:00,
2013-02-17 04:40:00,24.1,12.6,29.60,NNE,17,3.0,4.0,61,0.00,,,0.00,Wunderground v.1.15,2013-02-17 09:40:00,
2013-02-17 04:50:00,23.8,13.4,29.60,NNW,346,4.0,6.0,64,0.00,,,0.00,Wunderground v.1.15,2013-02-17 09:50:00,
2013-02-17 05:10:00,23.1,14.8,29.58,NNE,24,3.0,11.0,70,0.00,,,0.00,Wunderground v.1.15,2013-02-17 10:10:00,
2013-02-17 05:20:00,22.6,15.2,29.58,SW,221,3.0,4.0,73,0.00,,,0.00,Wunderground v.1.15,2013-02-17 10:20:00,
2013-02-17 05:30:00,21.9,15.5,29.57,SW,234,4.0,4.0,76,0.00,,,0.00,Wunderground v.1.15,2013-02-17 10:30:00,
2013-02-17 05:40:00,21.1,15.9,29.56,West,267,5.0,5.0,80,0.00,,,0.00,Wunderground v.1.15,2013-02-17 10:40:00,
2013-02-17 05:50:00,20.7,16.9,29.57,West,281,3.0,3.0,85,0.00,,,0.00,Wunderground v.1.15,2013-02-17 10:50:00,
2013-02-17 06:00:00,20.2,17.0,29.56,North,11,3.0,3.0,87,0.00,,,0.00,Wunderground v.1.15,2013-02-17 11:00:00,
2013-02-17 06:10:00,19.8,16.8,29.55,NNE,24,4.0,4.0,88,0.00,,,0.00,Wunderground v.1.15,2013-02-17 11:10:00,
2013-02-17 06:20:00,19.6,16.6,29.55,NNE,28,3.0,3.0,88,0.00,,,0.00,Wunderground v.1.15,2013-02-17 11:20:00,
2013-02-17 06:30:00,19.2,16.2,29.53,NW,315,4.0,5.0,88,0.00,,,0.00,Wunderground v.1.15,2013-02-17 11:30:00,
2013-02-17 06:40:00,19.0,16.0,29.52,North,360,4.0,4.0,88,0.00,,,0.00,Wunderground v.1.15,2013-02-17 11:40:00,
2013-02-17 06:50:00,18.8,15.8,29.52,WSW,241,4.0,4.0,88,0.00,,,0.00,Wunderground v.1.15,2013-02-17 11:50:00,
2013-02-17 07:00:00,18.6,15.6,29.52,WSW,250,4.0,5.0,88,0.00,,,0.00,Wunderground v.1.15,2013-02-17 12:00:00,
2013-02-17 07:10:00,18.5,15.8,29.52,NNE,27,3.0,3.0,89,0.00,,,0.01,Wunderground v.1.15,2013-02-17 12:10:00,
2013-02-17 07:20:00,18.4,15.7,29.50,South,184,4.0,4.0,89,0.00,,,0.01,Wunderground v.1.15,2013-02-17 12:20:00,
2013-02-17 07:30:00,18.2,15.2,29.50,NW,325,5.0,5.0,88,0.00,,,0.01,Wunderground v.1.15,2013-02-17 12:30:00,
2013-02-17 07:40:00,18.2,15.2,29.49,NNW,341,4.0,4.0,88,0.00,,,0.01,Wunderground v.1.15,2013-02-17 12:40:00,
2013-02-17 07:50:00,18.2,15.0,29.50,NNE,33,5.0,5.0,87,0.00,,,0.01,Wunderground v.1.15,2013-02-17 12:50:00,
2013-02-17 08:00:00,18.2,15.2,29.48,WNW,300,4.0,8.0,88,0.00,,,0.01,Wunderground v.1.15,2013-02-17 13:00:00,
2013-02-17 08:10:00,18.1,15.1,29.47,NNW,334,5.0,5.0,88,0.00,,,0.01,Wunderground v.1.15,2013-02-17 13:10:00,
2013-02-17 08:20:00,18.1,15.1,29.47,West,278,5.0,5.0,88,0.00,,,0.02,Wunderground v.1.15,2013-02-17 13:20:00,
2013-02-17 08:30:00,18.2,15.2,29.47,NNW,333,4.0,4.0,88,0.00,,,0.02,Wunderground v.1.15,2013-02-17 13:30:00,
2013-02-17 08:40:00,18.2,15.2,29.46,North,360,4.0,4.0,88,0.00,,,0.02,Wunderground v.1.15,2013-02-17 13:40:00,
2013-02-17 08:50:00,18.2,15.5,29.45,WNW,298,5.0,5.0,89,0.00,,,0.02,Wunderground v.1.15,2013-02-17 13:50:00,
2013-02-17 09:00:00,18.2,15.2,29.45,WSW,258,4.0,12.0,88,0.00,,,0.02,Wunderground v.1.15,2013-02-17 14:00:00,
2013-02-17 09:10:00,18.2,15.2,29.44,North,5,5.0,5.0,88,0.00,,,0.02,Wunderground v.1.15,2013-02-17 14:10:00,
2013-02-17 09:20:00,18.3,15.3,29.43,West,273,4.0,4.0,88,0.00,,,0.02,Wunderground v.1.15,2013-02-17 14:20:00,
2013-02-17 09:30:00,18.4,15.4,29.42,NNW,339,4.0,8.0,88,0.00,,,0.03,Wunderground v.1.15,2013-02-17 14:30:00,
2013-02-17 09:40:00,18.5,15.5,29.42,NW,304,6.0,6.0,88,0.00,,,0.03,Wunderground v.1.15,2013-02-17 14:40:00,
2013-02-17 09:50:00,18.6,15.4,29.42,NNW,343,5.0,6.0,87,0.00,,,0.03,Wunderground v.1.15,2013-02-17 14:50:00,
2013-02-17 10:00:00,18.6,15.6,29.42,NW,316,5.0,5.0,88,0.00,,,0.03,Wunderground v.1.15,2013-02-17 15:00:00,
2013-02-17 10:10:00,18.7,15.7,29.42,North,5,6.0,6.0,88,0.00,,,0.04,Wunderground v.1.15,2013-02-17 15:10:00,
2013-02-17 10:20:00,18.7,15.5,29.41,NNE,19,4.0,4.0,87,0.00,,,0.04,Wunderground v.1.15,2013-02-17 15:20:00,
2013-02-17 10:30:00,18.8,15.6,29.41,South,181,5.0,5.0,87,0.00,,,0.04,Wunderground v.1.15,2013-02-17 15:30:00,
2013-02-17 10:40:00,18.9,15.7,29.41,West,267,4.0,6.0,87,0.00,,,0.04,Wunderground v.1.15,2013-02-17 15:40:00,
2013-02-17 10:50:00,19.0,15.8,29.40,North,360,4.0,4.0,87,0.00,,,0.04,Wunderground v.1.15,2013-02-17 15:50:00,
2013-02-17 11:00:00,19.3,16.1,29.40,NW,323,4.0,4.0,87,0.00,,,0.04,Wunderground v.1.15,2013-02-17 16:00:00,
2013-02-17 11:10:00,19.4,15.9,29.40,WNW,288,4.0,5.0,86,0.00,,,0.05,Wunderground v.1.15,2013-02-17 16:10:00,
2013-02-17 11:20:00,19.5,15.7,29.40,WSW,256,4.0,4.0,85,0.00,,,0.05,Wunderground v.1.15,2013-02-17 16:20:00,
2013-02-17 11:30:00,19.6,15.6,29.40,NNW,340,6.0,6.0,84,0.00,,,0.05,Wunderground v.1.15,2013-02-17 16:30:00,
2013-02-17 11:40:00,19.7,15.6,29.40,North,360,6.0,10.0,84,0.00,,,0.06,Wunderground v.1.15,2013-02-17 16:40:00,
2013-02-17 11:50:00,19.8,15.7,29.40,NW,304,5.0,5.0,84,0.00,,,0.06,Wunderground v.1.15,2013-02-17 16:50:00,
2013-02-17 12:00:00,19.9,15.8,29.40,South,175,5.0,5.0,84,0.00,,,0.06,Wunderground v.1.15,2013-02-17 17:00:00,
2013-02-17 12:10:00,20.0,15.9,29.40,WNW,298,5.0,5.0,84,0.00,,,0.06,Wunderground v.1.15,2013-02-17 17:10:00,
2013-02-17 12:20:00,20.0,15.7,29.40,SW,223,4.0,7.0,83,0.00,,,0.06,Wunderground v.1.15,2013-02-17 17:20:00,
2013-02-17 12:30:00,20.2,15.6,29.40,NNW,330,5.0,6.0,82,0.00,,,0.06,Wunderground v.1.15,2013-02-17 17:30:00,
2013-02-17 12:40:00,20.4,15.2,29.40,West,280,5.0,7.0,80,0.00,,,0.06,Wunderground v.1.15,2013-02-17 17:40:00,
2013-02-17 12:50:00,20.3,14.5,29.40,NW,305,6.0,6.0,78,0.00,,,0.07,Wunderground v.1.15,2013-02-17 17:50:00,
2013-02-17 13:00:00,20.6,14.2,29.40,WNW,288,6.0,7.0,76,0.00,,,0.07,Wunderground v.1.15,2013-02-17 18:00:00,
2013-02-17 13:10:00,21.1,13.5,29.40,NNW,340,6.0,6.0,72,0.00,,,0.07,Wunderground v.1.15,2013-02-17 18:10:00,
2013-02-17 13:20:00,21.7,12.4,29.40,WNW,282,5.0,5.0,67,0.00,,,0.07,Wunderground v.1.15,2013-02-17 18:20:00,
2013-02-17 13:30:00,22.1,12.1,29.41,NW,326,5.0,6.0,65,0.00,,,0.07,Wunderground v.1.15,2013-02-17 18:30:00,
2013-02-17 13:40:00,22.4,11.3,29.41,West,280,7.0,7.0,62,0.00,,,0.07,Wunderground v.1.15,2013-02-17 18:40:00,
2013-02-17 13:50:00,22.7,9.7,29.41,WNW,286,6.0,13.0,57,0.00,,,0.08,Wunderground v.1.15,2013-02-17 18:50:00,
2013-02-17 14:00:00,22.5,9.9,29.42,WNW,284,7.0,21.0,58,0.00,,,0.08,Wunderground v.1.15,2013-02-17 19:00:00,
2013-02-17 14:10:00,22.6,8.4,29.41,West,265,8.0,8.0,54,0.00,,,0.08,Wunderground v.1.15,2013-02-17 19:10:00,
2013-02-17 14:20:00,22.8,8.6,29.42,NNE,26,7.0,7.0,54,0.00,,,0.08,Wunderground v.1.15,2013-02-17 19:20:00,
2013-02-17 14:30:00,22.9,7.9,29.42,NNW,343,6.0,7.0,52,0.00,,,0.08,Wunderground v.1.15,2013-02-17 19:30:00,
2013-02-17 14:40:00,23.1,8.5,29.42,West,265,7.0,9.0,53,0.00,,,0.08,Wunderground v.1.15,2013-02-17 19:40:00,
2013-02-17 14:50:00,22.8,7.4,29.43,WNW,298,8.0,8.0,51,0.00,,,0.08,Wunderground v.1.15,2013-02-17 19:50:00,
2013-02-17 15:00:00,22.7,6.4,29.43,East,90,7.0,7.0,49,0.00,,,0.08,Wunderground v.1.15,2013-02-17 20:00:00,
2013-02-17 15:10:00,22.5,6.6,29.44,WNW,295,7.0,7.0,50,0.00,,,0.08,Wunderground v.1.15,2013-02-17 20:10:00,
2013-02-17 15:20:00,22.2,6.4,29.44,WNW,300,8.0,11.0,50,0.00,,,0.08,Wunderground v.1.15,2013-02-17 20:20:00,
2013-02-17 15:30:00,21.8,5.5,29.44,NW,318,8.0,8.0,49,0.00,,,0.08,Wunderground v.1.15,2013-02-17 20:30:00,
2013-02-17 15:50:00,21.7,4.1,29.45,South,189,8.0,12.0,46,0.00,,,0.08,Wunderground v.1.15,2013-02-17 20:50:00,
2013-02-17 16:00:00,21.7,4.5,29.46,North,350,6.0,9.0,47,0.00,,,0.08,Wunderground v.1.15,2013-02-17 21:00:00,
2013-02-17 16:10:00,21.7,4.5,29.47,WNW,290,7.0,9.0,47,0.00,,,0.08,Wunderground v.1.15,2013-02-17 21:10:00,
2013-02-17 16:20:00,21.6,4.0,29.48,NNE,21,7.0,7.0,46,0.00,,,0.08,Wunderground v.1.15,2013-02-17 21:20:00,
2013-02-17 16:30:00,21.5,3.4,29.48,NW,317,8.0,8.0,45,0.00,,,0.08,Wunderground v.1.15,2013-02-17 21:30:00,
2013-02-17 16:40:00,21.5,3.4,29.48,SW,236,9.0,10.0,45,0.00,,,0.08,Wunderground v.1.15,2013-02-17 21:40:00,
2013-02-17 16:50:00,21.5,3.4,29.49,WNW,288,8.0,8.0,45,0.00,,,0.08,Wunderground v.1.15,2013-02-17 21:50:00,
2013-02-17 17:00:00,21.5,3.4,29.49,NNE,16,8.0,13.0,45,0.00,,,0.08,Wunderground v.1.15,2013-02-17 22:00:00,
2013-02-17 17:10:00,21.5,2.9,29.50,WNW,289,8.0,11.0,44,0.00,,,0.08,Wunderground v.1.15,2013-02-17 22:10:00,
2013-02-17 17:20:00,21.5,2.9,29.50,WNW,294,9.0,10.0,44,0.00,,,0.08,Wunderground v.1.15,2013-02-17 22:20:00,
2013-02-17 17:30:00,21.5,3.4,29.51,NW,305,6.0,6.0,45,0.00,,,0.08,Wunderground v.1.15,2013-02-17 22:30:00,
2013-02-17 17:40:00,21.5,3.4,29.52,West,259,6.0,9.0,45,0.00,,,0.08,Wunderground v.1.15,2013-02-17 22:40:00,
2013-02-17 17:50:00,21.6,3.5,29.52,West,267,6.0,10.0,45,0.00,,,0.08,Wunderground v.1.15,2013-02-17 22:50:00,
2013-02-17 18:00:00,21.6,3.0,29.53,West,276,9.0,9.0,44,0.00,,,0.08,Wunderground v.1.15,2013-02-17 23:00:00,
2013-02-17 18:10:00,21.6,3.5,29.53,West,278,8.0,8.0,45,0.00,,,0.08,Wunderground v.1.15,2013-02-17 23:10:00,
2013-02-17 18:20:00,21.6,3.0,29.52,WNW,298,8.0,8.0,44,0.00,,,0.08,Wunderground v.1.15,2013-02-17 23:20:00,
2013-02-17 18:30:00,21.6,3.0,29.53,NW,317,8.0,8.0,44,0.00,,,0.08,Wunderground v.1.15,2013-02-17 23:30:00,
2013-02-17 18:40:00,21.6,3.5,29.53,West,261,9.0,12.0,45,0.00,,,0.08,Wunderground v.1.15,2013-02-17 23:40:00,
2013-02-17 18:50:00,21.6,3.0,29.53,NW,308,7.0,11.0,44,0.00,,,0.08,Wunderground v.1.15,2013-02-17 23:50:00,
2013-02-17 19:00:00,21.5,2.9,29.54,North,360,6.0,6.0,44,0.00,,,0.08,Wunderground v.1.15,2013-02-18 00:00:00,
2013-02-17 19:10:00,21.5,3.4,29.54,NW,307,7.0,7.0,45,0.00,,,0.08,Wunderground v.1.15,2013-02-18 00:10:00,
2013-02-17 19:20:00,21.4,2.8,29.54,WNW,282,8.0,8.0,44,0.00,,,0.08,Wunderground v.1.15,2013-02-18 00:20:00,
2013-02-17 19:30:00,21.3,4.2,29.55,WNW,302,6.0,6.0,47,0.00,,,0.08,Wunderground v.1.15,2013-02-18 00:30:00,
2013-02-17 19:40:00,21.2,3.6,29.55,West,259,5.0,9.0,46,0.00,,,0.08,Wunderground v.1.15,2013-02-18 00:40:00,
2013-02-17 19:50:00,21.2,4.1,29.55,NNW,333,7.0,7.0,47,0.00,,,0.08,Wunderground v.1.15,2013-02-18 00:50:00,
2013-02-17 20:00:00,21.0,3.9,29.55,West,279,6.0,13.0,47,0.00,,,0.08,Wunderground v.1.15,2013-02-18 01:00:00,
2013-02-17 20:10:00,20.9,3.3,29.56,NW,309,7.0,14.0,46,0.00,,,0.08,Wunderground v.1.15,2013-02-18 01:10:00,
2013-02-17 20:20:00,20.8,2.8,29.57,NW,304,7.0,7.0,45,0.00,,,0.08,Wunderground v.1.15,2013-02-18 01:20:00,
2013-02-17 20:30:00,20.6,2.6,29.57,WSW,244,6.0,6.0,45,0.00,,,0.08,Wunderground v.1.15,2013-02-18 01:30:00,
2013-02-17 20:40:00,20.5,2.5,29.58,SW,227,6.0,8.0,45,0.00,,,0.08,Wunderground v.1.15,2013-02-18 01:40:00,
2013-02-17 20:50:00,20.3,1.8,29.58,NW,315,8.0,8.0,44,0.00,,,0.08,Wunderground v.1.15,2013-02-18 01:50:00,
2013-02-17 21:00:00,20.1,2.1,29.59,West,265,8.0,8.0,45,0.00,,,0.08,Wunderground v.1.15,2013-02-18 02:00:00,
2013-02-17 21:10:00,19.9,1.5,29.59,West,275,7.0,7.0,44,0.00,,,0.08,Wunderground v.1.15,2013-02-18 02:10:00,
2013-02-17 21:20:00,19.6,1.7,29.60,West,271,6.0,6.0,45,0.00,,,0.08,Wunderground v.1.15,2013-02-18 02:20:00,
2013-02-17 21:40:00,19.2,1.8,29.62,West,275,5.0,9.0,46,0.00,,,0.08,Wunderground v.1.15,2013-02-18 02:40:00,
2013-02-17 21:50:00,19.0,1.6,29.62,NW,317,4.0,9.0,46,0.00,,,0.08,Wunderground v.1.15,2013-02-18 02:50:00,
2013-02-17 22:00:00,18.7,1.8,29.63,WNW,284,6.0,6.0,47,0.00,,,0.08,Wunderground v.1.15,2013-02-18 03:00:00,
2013-02-17 22:10:00,18.4,1.5,29.64,NNW,337,5.0,5.0,47,0.00,,,0.08,Wunderground v.1.15,2013-02-18 03:10:00,
2013-02-17 22:20:00,18.2,0.9,29.65,West,279,7.0,11.0,46,0.00,,,0.08,Wunderground v.1.15,2013-02-18 03:20:00,
2013-02-17 22:40:00,17.9,1.5,29.66,SW,228,6.0,6.0,48,0.00,,,0.08,Wunderground v.1.15,2013-02-18 03:40:00,
2013-02-17 22:50:00,17.6,1.2,29.66,NW,311,6.0,6.0,48,0.00,,,0.08,Wunderground v.1.15,2013-02-18 03:50:00,
2013-02-17 23:00:00,17.3,1.4,29.66,WNW,289,7.0,7.0,49,0.00,,,0.08,Wunderground v.1.15,2013-02-18 04:00:00,
2013-02-17 23:10:00,17.2,1.3,29.67,NE,48,5.0,5.0,49,0.00,,,0.08,Wunderground v.1.15,2013-02-18 04:10:00,
2013-02-17 23:20:00,17.1,1.2,29.67,NNW,341,6.0,6.0,49,0.00,,,0.08,Wunderground v.1.15,2013-02-18 04:20:00,
2013-02-17 23:30:00,17.1,2.1,29.67,WNW,297,6.0,6.0,51,0.00,,,0.08,Wunderground v.1.15,2013-02-18 04:30:00,
2013-02-17 23:40:00,17.0,1.5,29.68,NW,310,6.0,6.0,50,0.00,,,0.08,Wunderground v.1.15,2013-02-18 04:40:00,
2013-02-17 23:50:00,17.0,2.0,29.68,NNW,340,4.0,4.0,51,0.00,,,0.08,Wunderground v.1.15,2013-02-18 04:50:00,